Time;durP1;ratioP1;P1;durP2;ratioP2;P2;SDS_P1;SDS_P2;PMS_P1;PMS_P2;Temp;Humidity;BMP_temperature;BMP_pressure;BME280_temperature;BME280_humidity;BME280_pressure;Samples;Min_cycle;Max_cycle;Signal;HPM_P1;HPM_P2
2024/02/01 00:01:08;;;;;;;36.50;26.40;;;;;;;2.88;100.00;101036.65;87238;269;136508;-70
2024/02/01 00:03:10;;;;;;;41.50;27.30;;;;;;;2.83;100.00;101035.29;87354;271;22568;-72
2024/02/01 00:05:12;;;;;;;44.30;29.70;;;;;;;2.79;100.00;101035.25;87026;272;136229;-70
2024/02/01 00:07:14;;;;;;;36.00;26.10;;;;;;;2.80;100.00;101036.73;87194;273;25076;-71
2024/02/01 00:09:16;;;;;;;38.20;24.40;;;;;;;2.87;100.00;101040.79;87232;279;137147;-70
2024/02/01 00:11:18;;;;;;;32.90;23.30;;;;;;;2.93;100.00;101042.23;87272;279;23740;-70
2024/02/01 00:13:20;;;;;;;36.40;25.00;;;;;;;2.92;100.00;101043.67;87235;271;136478;-71
2024/02/01 00:15:22;;;;;;;35.80;26.90;;;;;;;2.85;100.00;101044.09;87243;270;25251;-71
2024/02/01 00:17:24;;;;;;;37.40;27.90;;;;;;;2.80;100.00;101045.02;87180;278;136346;-71
2024/02/01 00:19:26;;;;;;;37.70;28.20;;;;;;;2.77;100.00;101043.88;87260;275;25080;-70
2024/02/01 00:21:28;;;;;;;34.50;25.50;;;;;;;2.70;100.00;101043.48;87087;277;136664;-72
2024/02/01 00:23:30;;;;;;;34.00;23.00;;;;;;;2.64;100.00;101043.65;87323;268;22555;-71
2024/02/01 00:25:32;;;;;;;28.90;21.00;;;;;;;2.66;100.00;101039.02;87224;267;137169;-71
2024/02/01 00:27:34;;;;;;;31.90;21.40;;;;;;;2.71;100.00;101038.14;87430;279;24074;-72
2024/02/01 00:29:35;;;;;;;30.60;23.70;;;;;;;2.76;100.00;101036.71;87240;275;136872;-71
2024/02/01 00:31:38;;;;;;;30.60;23.30;;;;;;;2.77;100.00;101034.74;87195;272;22559;-71
2024/02/01 00:33:40;;;;;;;28.80;22.30;;;;;;;2.73;100.00;101037.66;87248;267;137879;-70
2024/02/01 00:35:42;;;;;;;28.90;23.50;;;;;;;2.70;100.00;101038.96;87486;267;25088;-71
2024/02/01 00:37:44;;;;;;;30.50;22.60;;;;;;;2.68;100.00;101040.30;87183;275;136567;-70
2024/02/01 00:39:45;;;;;;;28.80;22.70;;;;;;;2.67;100.00;101035.85;87210;271;24026;-71
2024/02/01 00:41:48;;;;;;;33.30;25.50;;;;;;;2.64;100.00;101030.95;87051;276;138723;-72
2024/02/01 00:43:50;;;;;;;31.00;22.60;;;;;;;2.64;100.00;101029.80;87134;272;21528;-72
2024/02/01 00:45:51;;;;;;;30.90;22.00;;;;;;;2.69;100.00;101029.89;86961;275;136980;-72
2024/02/01 00:47:53;;;;;;;30.90;22.90;;;;;;;2.78;100.00;101030.59;87202;274;22578;-70
2024/02/01 00:49:55;;;;;;;32.60;21.80;;;;;;;2.84;100.00;101029.59;86934;280;136567;-70
2024/02/01 00:51:57;;;;;;;27.90;22.00;;;;;;;2.85;100.00;101025.49;87276;279;22529;-71
2024/02/01 00:54:00;;;;;;;39.00;26.40;;;;;;;2.80;100.00;101022.34;86955;279;136485;-71
2024/02/01 00:56:02;;;;;;;36.90;27.80;;;;;;;2.78;100.00;101019.54;87067;272;24934;-72
2024/02/01 00:58:04;;;;;;;49.70;34.70;;;;;;;2.77;100.00;101016.45;87299;278;22661;-73
2024/02/01 01:00:07;;;;;;;45.20;33.00;;;;;;;2.75;100.00;101011.33;87035;261;136731;-70
2024/02/01 01:02:09;;;;;;;51.90;31.60;;;;;;;2.74;100.00;101005.83;87307;263;25236;-70
2024/02/01 01:04:11;;;;;;;46.90;28.70;;;;;;;2.79;100.00;101001.91;87344;278;136982;-71
2024/02/01 01:06:14;;;;;;;45.00;27.90;;;;;;;2.89;100.00;100998.83;87175;272;22627;-71
2024/02/01 01:08:16;;;;;;;36.80;23.90;;;;;;;2.93;100.00;100992.54;87156;268;137263;-68
2024/02/01 01:10:18;;;;;;;38.70;26.60;;;;;;;2.88;100.00;100995.02;87275;275;25549;-72
2024/02/01 01:12:21;;;;;;;42.60;30.50;;;;;;;2.79;100.00;100992.27;87111;279;136802;-70
2024/02/01 01:14:23;;;;;;;38.80;28.10;;;;;;;2.72;100.00;100991.02;87134;268;22533;-71
2024/02/01 01:16:26;;;;;;;38.80;27.60;;;;;;;2.67;100.00;100989.83;87110;267;136180;-71
2024/02/01 01:18:28;;;;;;;39.30;29.00;;;;;;;2.62;100.00;100989.70;87489;271;25226;-72
2024/02/01 01:20:30;;;;;;;37.20;26.10;;;;;;;2.55;100.00;100983.92;87176;275;136584;-71
2024/02/01 01:22:33;;;;;;;37.80;25.10;;;;;;;2.58;100.00;100979.02;87272;278;24026;-71
2024/02/01 01:24:35;;;;;;;30.30;22.60;;;;;;;2.64;100.00;100972.02;87006;275;137068;-71
2024/02/01 01:26:37;;;;;;;36.50;24.10;;;;;;;2.68;100.00;100964.67;87071;271;22676;-71
2024/02/01 01:28:39;;;;;;;33.10;25.20;;;;;;;2.65;100.00;100963.32;87020;272;137054;-72
2024/02/01 01:30:40;;;;;;;33.00;23.90;;;;;;;2.58;100.00;100962.13;87258;269;26004;-72
2024/02/01 01:32:42;;;;;;;34.10;25.10;;;;;;;2.50;100.00;100956.91;87154;265;135995;-70
2024/02/01 01:34:45;;;;;;;36.00;26.10;;;;;;;2.45;100.00;100951.73;87367;271;22638;-71
2024/02/01 01:36:46;;;;;;;33.90;25.80;;;;;;;2.40;100.00;100947.38;87228;271;136365;-70
2024/02/01 01:38:48;;;;;;;31.90;24.60;;;;;;;2.39;100.00;100946.47;87251;272;22567;-71
2024/02/01 01:40:50;;;;;;;34.30;26.40;;;;;;;2.35;100.00;100943.25;87129;272;136235;-71
2024/02/01 01:42:52;;;;;;;34.60;25.00;;;;;;;2.38;100.00;100941.07;87358;266;22615;-70
2024/02/01 01:44:54;;;;;;;33.40;25.10;;;;;;;2.46;100.00;100937.30;87227;263;137041;-70
2024/02/01 01:46:56;;;;;;;34.00;25.50;;;;;;;2.51;100.00;100936.48;87348;271;22553;-70
2024/02/01 01:48:57;;;;;;;36.90;24.60;;;;;;;2.53;100.00;100931.80;87223;279;138404;-70
2024/02/01 01:51:00;;;;;;;34.90;25.90;;;;;;;2.51;100.00;100929.72;87212;272;25324;-72
2024/02/01 01:53:03;;;;;;;34.90;26.10;;;;;;;2.47;100.00;100928.40;87154;279;138024;-72
2024/02/01 01:55:07;;;;;;;32.50;24.90;;;;;;;2.43;100.00;100925.23;87355;271;22584;-71
2024/02/01 01:57:12;;;;;;;40.80;26.90;;;;;;;2.39;100.00;100922.08;87305;275;136508;-70
2024/02/01 01:59:16;;;;;;;34.10;25.60;;;;;;;2.35;100.00;100922.23;87343;279;22848;-70
2024/02/01 02:01:18;;;;;;;32.70;24.50;;;;;;;2.30;100.00;100920.14;87321;267;136602;-71
2024/02/01 02:03:27;;;;;;;31.90;25.30;;;;;;;2.32;100.00;100912.07;87321;271;24898;-71
2024/02/01 02:05:29;;;;;;;34.20;25.40;;;;;;;2.43;100.00;100918.07;87214;267;136659;-70
2024/02/01 02:07:31;;;;;;;31.20;23.50;;;;;;;2.51;100.00;100914.63;87877;271;25085;-70
2024/02/01 02:09:33;;;;;;;34.60;25.10;;;;;;;2.52;100.00;100912.58;87100;278;137041;-70
2024/02/01 02:11:35;;;;;;;36.20;26.40;;;;;;;2.43;100.00;100905.95;87244;272;22572;-70
2024/02/01 02:13:37;;;;;;;34.30;26.50;;;;;;;2.32;100.00;100903.67;87041;275;136671;-72
2024/02/01 02:15:39;;;;;;;37.00;25.40;;;;;;;2.24;100.00;100903.98;87184;268;22572;-70
2024/02/01 02:17:41;;;;;;;35.00;26.10;;;;;;;2.17;100.00;100903.79;87078;264;136407;-72
2024/02/01 02:19:43;;;;;;;31.80;24.20;;;;;;;2.20;100.00;100901.96;87067;272;24052;-70
2024/02/01 02:21:53;;;;;;;31.90;24.00;;;;;;;2.30;100.00;100901.87;86936;272;138058;-71
2024/02/01 02:23:55;;;;;;;32.20;24.20;;;;;;;2.39;100.00;100901.19;87279;272;25111;-71
2024/02/01 02:25:57;;;;;;;32.70;26.90;;;;;;;2.39;100.00;100900.14;87230;275;137601;-69
2024/02/01 02:27:58;;;;;;;34.00;26.30;;;;;;;2.32;100.00;100896.09;87206;272;25188;-70
2024/02/01 02:30:00;;;;;;;39.40;31.30;;;;;;;2.27;100.00;100893.88;87283;271;136424;-70
2024/02/01 02:32:02;;;;;;;46.30;34.60;;;;;;;2.22;100.00;100893.91;87260;269;25291;-70
2024/02/01 02:34:04;;;;;;;40.60;29.70;;;;;;;2.20;100.00;100889.55;87398;274;22539;-70
2024/02/01 02:36:09;;;;;;;38.30;30.40;;;;;;;2.26;100.00;100887.81;87303;266;138345;-70
2024/02/01 02:38:12;;;;;;;36.50;26.00;;;;;;;2.32;100.00;100888.87;87312;267;25220;-69
2024/02/01 02:40:21;;;;;;;34.50;26.50;;;;;;;2.37;100.00;100892.77;87276;268;138404;-70
2024/02/01 02:42:23;;;;;;;35.00;24.80;;;;;;;2.37;100.00;100890.64;87372;268;22622;-70
2024/02/01 02:44:26;;;;;;;33.60;25.50;;;;;;;2.31;100.00;100888.14;87372;263;138082;-70
2024/02/01 02:46:30;;;;;;;39.10;26.60;;;;;;;2.24;100.00;100885.92;87330;279;23019;-70
2024/02/01 02:48:32;;;;;;;35.70;26.50;;;;;;;2.17;100.00;100880.67;87514;267;136527;-69
2024/02/01 02:50:36;;;;;;;45.90;29.40;;;;;;;2.12;100.00;100878.73;87375;269;24061;-69
2024/02/01 02:52:40;;;;;;;41.10;28.40;;;;;;;2.16;100.00;100870.55;87243;271;136957;-70
2024/02/01 02:54:41;;;;;;;34.70;26.10;;;;;;;2.23;100.00;100870.67;87292;263;22677;-70
2024/02/01 02:56:43;;;;;;;37.60;24.90;;;;;;;2.27;100.00;100866.65;87154;272;137380;-69
2024/02/01 02:58:45;;;;;;;42.70;25.60;;;;;;;2.30;100.00;100866.31;87540;272;25966;-70
2024/02/01 03:00:47;;;;;;;39.60;28.20;;;;;;;2.27;100.00;100863.93;87214;271;136608;-69
2024/02/01 03:02:51;;;;;;;40.70;30.50;;;;;;;2.20;100.00;100862.02;87339;275;25175;-68
2024/02/01 03:04:53;;;;;;;42.70;28.60;;;;;;;2.14;100.00;100853.90;87102;270;136592;-70
2024/02/01 03:09:35;;;;;;;42.50;30.90;;;;;;;1.98;100.00;100850.92;85095;302;604093;-71
2024/02/01 03:11:37;;;;;;;41.10;28.20;;;;;;;2.02;100.00;100851.52;86516;283;22971;-69
2024/02/01 03:13:41;;;;;;;40.10;27.90;;;;;;;2.12;100.00;100854.52;86392;283;136568;-69
2024/02/01 03:15:42;;;;;;;35.40;26.40;;;;;;;2.20;100.00;100855.20;86583;283;25217;-70
2024/02/01 03:17:44;;;;;;;34.20;25.20;;;;;;;2.20;100.00;100849.56;86330;288;135922;-70
2024/02/01 03:19:50;;;;;;;37.70;27.70;;;;;;;2.13;100.00;100853.40;86461;276;22593;-69
2024/02/01 03:21:55;;;;;;;36.20;27.20;;;;;;;2.08;100.00;100851.39;86568;283;136267;-71
2024/02/01 03:24:00;;;;;;;40.10;28.50;;;;;;;2.04;100.00;100850.08;86120;282;681876;-69
2024/02/01 03:26:04;;;;;;;41.80;28.00;;;;;;;2.03;100.00;100845.66;87254;282;24194;-69
2024/02/01 03:28:06;;;;;;;39.40;26.90;;;;;;;2.08;100.00;100832.38;87091;270;136362;-69
2024/02/01 03:30:15;;;;;;;36.30;27.10;;;;;;;2.19;100.00;100828.94;87110;271;25111;-70
2024/02/01 03:32:19;;;;;;;37.00;27.20;;;;;;;2.25;100.00;100824.61;87003;282;138561;-70
2024/02/01 03:34:21;;;;;;;37.70;27.80;;;;;;;2.25;100.00;100827.55;87224;275;24081;-69
2024/02/01 03:36:25;;;;;;;33.90;26.10;;;;;;;2.23;100.00;100828.83;87299;281;136121;-69
2024/02/01 03:38:27;;;;;;;42.00;27.70;;;;;;;2.19;100.00;100827.88;87650;270;22715;-69
2024/02/01 03:40:29;;;;;;;35.60;27.00;;;;;;;2.17;100.00;100829.08;87400;273;136173;-69
2024/02/01 03:42:30;;;;;;;37.00;25.30;;;;;;;2.18;100.00;100822.91;87272;275;22525;-69
2024/02/01 03:44:37;;;;;;;34.60;25.80;;;;;;;2.20;100.00;100821.38;87609;271;138083;-70
2024/02/01 03:46:40;;;;;;;40.70;26.40;;;;;;;2.26;100.00;100817.31;88011;271;23948;-69
2024/02/01 03:48:43;;;;;;;36.90;26.00;;;;;;;2.34;100.00;100817.59;87379;275;136737;-70
2024/02/01 03:50:46;;;;;;;33.00;24.70;;;;;;;2.40;100.00;100819.39;87274;279;22796;-69
2024/02/01 03:52:48;;;;;;;34.80;26.00;;;;;;;2.37;100.00;100812.83;86978;275;136308;-70
2024/02/01 03:54:54;;;;;;;38.60;26.80;;;;;;;2.34;100.00;100805.30;86926;276;22570;-71
2024/02/01 03:56:56;;;;;;;39.90;26.60;;;;;;;2.32;100.00;100802.23;87037;271;136209;-70
2024/02/01 03:59:01;;;;;;;40.00;27.50;;;;;;;2.31;100.00;100801.45;87183;278;22575;-70
2024/02/01 04:01:03;;;;;;;38.80;27.50;;;;;;;2.30;100.00;100803.54;86970;274;137999;-71
2024/02/01 04:03:13;;;;;;;35.80;26.20;;;;;;;2.35;100.00;100795.36;87137;271;22570;-70
2024/02/01 04:05:15;;;;;;;37.60;25.80;;;;;;;2.45;100.00;100798.80;87203;275;136992;-69
2024/02/01 04:07:18;;;;;;;36.20;25.30;;;;;;;2.48;100.00;100795.18;87285;270;25204;-69
2024/02/01 04:09:21;;;;;;;33.30;25.10;;;;;;;2.43;100.00;100787.40;87276;266;136376;-69
2024/02/01 04:11:24;;;;;;;33.20;24.10;;;;;;;2.33;100.00;100787.81;87338;277;26319;-69
2024/02/01 04:13:26;;;;;;;42.30;27.30;;;;;;;2.30;100.00;100788.80;87205;270;136115;-69
2024/02/01 04:15:28;;;;;;;34.80;27.50;;;;;;;2.27;100.00;100785.15;87324;271;25086;-69
2024/02/01 04:17:30;;;;;;;35.80;27.10;;;;;;;2.24;100.00;100784.85;87231;266;136312;-69
2024/02/01 04:19:31;;;;;;;32.40;24.90;;;;;;;2.27;100.00;100777.81;87262;274;23998;-69
2024/02/01 04:21:36;;;;;;;33.30;23.40;;;;;;;2.34;100.00;100778.48;87179;278;136897;-68
2024/02/01 04:23:38;;;;;;;32.40;23.80;;;;;;;2.38;100.00;100778.96;87276;271;24145;-69
2024/02/01 04:25:40;;;;;;;36.40;26.00;;;;;;;2.36;100.00;100777.08;87149;271;137224;-69
2024/02/01 04:27:49;;;;;;;38.10;28.20;;;;;;;2.29;100.00;100773.23;87173;280;22569;-69
2024/02/01 04:29:52;;;;;;;34.10;24.30;;;;;;;2.25;100.00;100778.85;87113;278;135828;-69
2024/02/01 04:31:53;;;;;;;34.10;26.20;;;;;;;2.21;100.00;100777.58;87396;278;22944;-72
2024/02/01 04:33:58;;;;;;;36.50;26.30;;;;;;;2.17;100.00;100782.63;87157;267;136315;-69
2024/02/01 04:36:00;;;;;;;33.90;24.40;;;;;;;2.22;100.00;100780.64;87343;271;22568;-70
2024/02/01 04:38:04;;;;;;;35.40;25.60;;;;;;;2.31;100.00;100779.59;87223;271;136738;-68
2024/02/01 04:40:12;;;;;;;35.40;25.10;;;;;;;2.33;100.00;100776.70;87384;271;137347;-69
2024/02/01 04:42:14;;;;;;;32.70;24.10;;;;;;;2.33;100.00;100773.80;87713;269;23360;-69
2024/02/01 04:44:16;;;;;;;31.80;24.60;;;;;;;2.29;100.00;100773.38;87173;271;136640;-70
2024/02/01 04:46:20;;;;;;;33.40;23.90;;;;;;;2.25;100.00;100772.73;87236;272;22625;-70
2024/02/01 04:48:25;;;;;;;33.10;26.00;;;;;;;2.20;100.00;100765.73;87091;270;136012;-71
2024/02/01 04:50:27;;;;;;;33.80;25.10;;;;;;;2.18;100.00;100767.10;87259;270;22584;-69
2024/02/01 04:52:30;;;;;;;31.10;23.90;;;;;;;2.18;100.00;100759.29;87136;266;136246;-71
2024/02/01 04:54:34;;;;;;;33.20;23.80;;;;;;;2.24;100.00;100759.12;87265;267;22584;-70
2024/02/01 04:56:38;;;;;;;33.90;24.70;;;;;;;2.28;100.00;100754.04;87036;268;136778;-71
2024/02/01 04:58:41;;;;;;;28.90;22.60;;;;;;;2.30;100.00;100751.94;87413;271;25290;-69
2024/02/01 05:00:43;;;;;;;29.60;24.40;;;;;;;2.26;100.00;100749.45;87229;271;136354;-70
2024/02/01 05:02:49;;;;;;;34.30;26.10;;;;;;;2.21;100.00;100745.84;87326;277;22565;-69
2024/02/01 05:04:51;;;;;;;;;;;;;;;2.18;100.00;100746.59;87199;271;136184;-70
2024/02/01 05:06:52;;;;;;;40.20;26.10;;;;;;;2.15;100.00;100744.77;87156;279;24103;-69
2024/02/01 05:08:54;;;;;;;34.00;26.60;;;;;;;2.11;100.00;100739.76;87001;272;137437;-68
2024/02/01 05:10:56;;;;;;;35.90;26.10;;;;;;;2.09;100.00;100740.13;87239;271;23749;-68
2024/02/01 05:12:59;;;;;;;34.40;24.50;;;;;;;2.15;100.00;100732.60;87203;267;136652;-68
2024/02/01 05:15:07;;;;;;;33.90;26.40;;;;;;;2.26;100.00;100733.89;87452;267;22572;-69
2024/02/01 05:17:09;;;;;;;30.90;22.60;;;;;;;2.31;100.00;100732.36;87210;270;136661;-72
2024/02/01 05:19:11;;;;;;;32.10;25.30;;;;;;;2.36;100.00;100732.67;87264;269;22633;-70
2024/02/01 05:21:14;;;;;;;32.60;25.30;;;;;;;2.36;100.00;100735.49;87170;266;137932;-70
2024/02/01 05:23:16;;;;;;;31.80;24.70;;;;;;;2.35;100.00;100737.68;87324;274;22577;-69
2024/02/01 05:25:19;;;;;;;36.70;25.40;;;;;;;2.35;100.00;100737.16;87235;277;152046;-71
2024/02/01 05:27:22;;;;;;;35.20;24.80;;;;;;;2.35;100.00;100733.09;87277;273;24923;-70
2024/02/01 05:29:25;;;;;;;35.90;26.20;;;;;;;2.37;100.00;100731.42;87123;269;136212;-71
2024/02/01 05:31:27;;;;;;;31.40;23.00;;;;;;;2.44;100.00;100733.58;87238;277;23696;-72
2024/02/01 05:33:29;;;;;;;32.60;23.70;;;;;;;2.50;100.00;100735.70;87154;270;136839;-69
2024/02/01 05:35:33;;;;;;;33.60;24.00;;;;;;;2.49;100.00;100735.27;87486;276;25124;-70
2024/02/01 05:37:36;;;;;;;;;;;;;;;2.44;100.00;100730.08;87174;271;137521;-69
2024/02/01 05:39:44;;;;;;;36.50;25.20;;;;;;;2.38;100.00;100731.48;87433;267;22558;-69
2024/02/01 05:41:46;;;;;;;33.50;26.20;;;;;;;2.34;100.00;100720.76;87077;278;137023;-69
2024/02/01 05:43:48;;;;;;;37.00;27.10;;;;;;;2.30;100.00;100724.91;87082;271;23325;-68
2024/02/01 05:45:50;;;;;;;32.60;24.70;;;;;;;2.28;100.00;100721.45;87086;271;136055;-69
2024/02/01 05:47:52;;;;;;;38.00;25.40;;;;;;;2.36;100.00;100721.96;87017;272;22593;-68
2024/02/01 05:49:54;;;;;;;36.20;24.10;;;;;;;2.51;100.00;100720.77;87117;271;136543;-70
2024/02/01 05:52:04;;;;;;;32.50;24.50;;;;;;;2.62;100.00;100718.75;87246;278;22817;-70
2024/02/01 05:54:06;;;;;;;33.10;25.10;;;;;;;2.69;100.00;100717.50;87297;271;24154;-70
2024/02/01 05:56:08;;;;;;;32.00;24.90;;;;;;;2.72;100.00;100714.79;87137;278;137909;-70
2024/02/01 05:58:10;;;;;;;35.70;27.00;;;;;;;2.79;100.00;100715.85;87207;279;22554;-71
2024/02/01 06:00:13;;;;;;;33.30;26.90;;;;;;;2.91;100.00;100711.99;86999;271;136604;-69
2024/02/01 06:02:15;;;;;;;36.30;25.40;;;;;;;3.10;100.00;100710.58;87520;277;25082;-71
2024/02/01 06:04:17;;;;;;;35.10;24.70;;;;;;;3.27;100.00;100705.58;87068;270;136882;-70
2024/02/01 06:06:20;;;;;;;31.30;23.90;;;;;;;3.46;100.00;100702.72;87282;271;24356;-70
2024/02/01 06:08:22;;;;;;;28.90;23.20;;;;;;;3.60;100.00;100695.94;87152;274;137179;-69
2024/02/01 06:10:24;;;;;;;29.10;22.80;;;;;;;3.61;100.00;100692.98;87268;271;22578;-69
2024/02/01 06:12:28;;;;;;;30.90;23.20;;;;;;;3.58;100.00;100695.20;86995;271;136326;-68
2024/02/01 06:14:36;;;;;;;31.80;25.00;;;;;;;3.52;100.00;100695.36;87271;270;25072;-69
2024/02/01 06:16:38;;;;;;;31.70;24.40;;;;;;;3.52;100.00;100689.80;87097;278;136240;-70
2024/02/01 06:18:40;;;;;;;31.00;24.60;;;;;;;3.49;100.00;100682.83;87188;271;25313;-71
2024/02/01 06:20:41;;;;;;;34.40;25.20;;;;;;;3.42;100.00;100680.20;87197;267;136729;-71
2024/02/01 06:22:44;;;;;;;27.30;21.00;;;;;;;3.46;100.00;100674.48;87205;277;25188;-70
2024/02/01 06:24:46;;;;;;;31.00;23.00;;;;;;;3.55;100.00;100667.02;87175;266;137173;-68
2024/02/01 06:26:48;;;;;;;27.90;22.30;;;;;;;3.58;100.00;100662.67;87306;270;22927;-70
2024/02/01 06:28:50;;;;;;;30.60;23.60;;;;;;;3.59;100.00;100659.80;87375;267;138190;-69
2024/02/01 06:30:52;;;;;;;29.70;23.40;;;;;;;3.54;100.00;100666.17;87070;271;26319;-69
2024/02/01 06:32:54;;;;;;;32.90;25.10;;;;;;;3.50;100.00;100659.34;87014;268;137276;-70
2024/02/01 06:35:06;;;;;;;31.70;24.60;;;;;;;3.46;100.00;100657.20;87082;268;25071;-69
2024/02/01 06:37:08;;;;;;;32.60;24.40;;;;;;;3.43;100.00;100654.01;87305;276;136042;-70
2024/02/01 06:39:37;;;;;;;28.30;23.00;;;;;;;3.42;100.00;100653.22;87302;279;25214;-70
2024/02/01 06:41:46;;;;;;;32.30;23.00;;;;;;;3.51;100.00;100665.76;87102;271;139548;-70
2024/02/01 06:44:09;;;;;;;32.40;23.80;;;;;;;3.59;100.00;100675.58;87346;272;22588;-72
2024/02/01 06:46:22;;;;;;;28.50;22.10;;;;;;;3.66;100.00;100670.39;87177;270;22529;-69
2024/02/01 06:48:40;;;;;;;25.30;21.10;;;;;;;3.64;100.00;100660.53;87079;274;136529;-70
2024/02/01 06:50:54;;;;;;;30.50;23.50;;;;;;;3.61;100.00;100657.84;87420;270;25547;-70
2024/02/01 06:53:08;;;;;;;30.90;24.90;;;;;;;3.59;100.00;100647.33;87447;274;136546;-70
2024/02/01 06:57:18;;;;;;;35.80;26.50;;;;;;;3.59;100.00;100624.67;87021;268;137528;-69
2024/02/01 06:59:54;;;;;;;31.20;22.90;;;;;;;3.66;100.00;100624.50;87294;270;22550;-71
2024/02/01 07:02:14;;;;;;;31.90;22.60;;;;;;;3.75;100.00;100626.79;86962;271;136489;-72
2024/02/01 07:04:16;;;;;;;26.20;20.60;;;;;;;3.82;100.00;100629.46;87048;275;138139;-70
2024/02/01 07:06:27;;;;;;;30.10;23.90;;;;;;;3.83;100.00;100638.51;87241;278;25255;-71
2024/02/01 07:10:43;;;;;;;39.20;25.90;;;;;;;3.82;100.00;100642.11;87228;271;22562;-72
2024/02/01 07:13:07;;;;;;;;;;;;;;;3.83;100.00;100642.17;87159;279;136830;-72
2024/02/01 07:17:27;;;;;;;34.70;25.60;;;;;;;3.87;100.00;100645.04;87213;267;136791;-70
2024/02/01 07:20:23;;;;;;;33.40;26.40;;;;;;;3.90;100.00;100636.16;87435;267;24400;-70
2024/02/01 07:22:06;;;;;;;31.20;23.60;;;;;;;4.02;100.00;100638.70;87379;268;137293;-69
2024/02/01 07:24:27;;;;;;;31.80;23.50;;;;;;;4.15;100.00;100633.02;87239;272;137668;-69
2024/02/01 07:26:43;;;;;;;30.60;22.60;;;;;;;4.23;100.00;100636.19;87490;266;22563;-69
2024/02/01 07:59:26;;;;;;;35.80;25.90;;;;;;;4.59;100.00;100597.11;87299;274;22571;-74
2024/02/01 08:01:38;;;;;;;32.20;25.00;;;;;;;4.64;100.00;100595.05;87537;266;136131;-70
2024/02/01 08:08:22;;;;;;;30.70;22.20;;;;;;;4.85;100.00;100579.05;87231;266;137627;-71
2024/02/01 08:10:24;;;;;;;29.90;24.10;;;;;;;4.92;100.00;100576.80;87357;270;22568;-68
2024/02/01 08:12:33;;;;;;;29.90;22.50;;;;;;;4.95;100.00;100574.41;87219;270;136562;-69
2024/02/01 08:14:36;;;;;;;30.80;25.20;;;;;;;4.96;100.00;100569.88;87247;269;23956;-68
2024/02/01 08:16:39;;;;;;;33.30;24.60;;;;;;;5.01;100.00;100567.84;87112;265;136737;-70
2024/02/01 08:18:41;;;;;;;31.60;23.80;;;;;;;5.06;100.00;100570.13;87312;270;22642;-69
2024/02/01 08:20:43;;;;;;;33.10;26.30;;;;;;;5.08;100.00;100573.49;87181;270;136811;-71
2024/02/01 08:22:46;;;;;;;34.20;26.10;;;;;;;5.08;100.00;100567.89;87336;270;25156;-71
2024/02/01 08:24:54;;;;;;;35.50;26.40;;;;;;;5.11;100.00;100563.84;87332;274;136966;-72
2024/02/01 08:27:00;;;;;;;30.90;23.50;;;;;;;5.27;100.00;100561.41;87269;278;26289;-72
2024/02/01 08:29:14;;;;;;;36.40;27.40;;;;;;;5.43;100.00;100555.48;87264;278;137229;-72
2024/02/01 08:31:17;;;;;;;34.80;23.70;;;;;;;5.53;100.00;100556.49;87173;271;22609;-71
2024/02/01 10:21:33;;;;;;;35.30;22.00;;;;;;;5.46;100.00;100392.31;87242;267;136560;-71
2024/02/01 10:23:45;;;;;;;25.30;19.70;;;;;;;5.48;100.00;100385.77;87273;278;23844;-70
2024/02/01 10:25:50;;;;;;;25.50;19.80;;;;;;;5.49;100.00;100381.86;87163;279;136683;-71
2024/02/01 10:27:56;;;;;;;29.20;21.30;;;;;;;5.47;100.00;100375.36;87515;271;22561;-71
2024/02/01 10:30:07;;;;;;;24.10;19.70;;;;;;;5.46;100.00;100369.95;87281;270;136737;-69
2024/02/01 10:32:13;;;;;;;23.70;19.30;;;;;;;5.46;100.00;100364.52;87206;273;138365;-70
2024/02/01 10:34:16;;;;;;;22.50;17.20;;;;;;;5.53;100.00;100362.73;87273;266;24020;-71
2024/02/01 10:36:22;;;;;;;26.30;18.80;;;;;;;5.65;100.00;100354.83;87391;273;137361;-72
2024/02/01 10:38:25;;;;;;;22.80;18.40;;;;;;;5.74;100.00;100349.87;87261;266;22556;-74
2024/02/01 10:40:39;;;;;;;25.50;20.10;;;;;;;5.78;100.00;100348.03;87153;273;137858;-72
2024/02/01 10:42:45;;;;;;;23.10;19.50;;;;;;;5.80;100.00;100340.63;87282;278;22571;-70
2024/02/01 10:44:51;;;;;;;22.10;18.40;;;;;;;5.82;100.00;100338.48;87226;277;136710;-71
2024/02/01 10:46:56;;;;;;;24.60;18.80;;;;;;;5.81;100.00;100332.57;87399;278;22562;-70
2024/02/01 10:49:18;;;;;;;23.20;17.40;;;;;;;5.79;100.00;100326.58;87418;267;136447;-71
2024/02/01 10:51:22;;;;;;;29.80;19.40;;;;;;;5.74;100.00;100320.92;87469;268;22544;-70
2024/02/01 10:53:26;;;;;;;23.50;19.50;;;;;;;5.70;100.00;100324.04;87301;271;136445;-71
2024/02/01 10:55:28;;;;;;;23.20;18.20;;;;;;;5.69;100.00;100320.09;87406;274;22584;-72
2024/02/01 10:57:34;;;;;;;22.60;19.40;;;;;;;5.67;100.00;100314.45;87193;270;136427;-71
2024/02/01 10:59:38;;;;;;;25.20;18.40;;;;;;;5.62;100.00;100320.01;87249;278;23013;-71
2024/02/01 11:01:41;;;;;;;28.60;20.20;;;;;;;5.61;100.00;100314.38;87176;271;136695;-73
2024/02/01 11:04:06;;;;;;;24.80;17.90;;;;;;;5.68;100.00;100311.41;87296;268;22563;-72
2024/02/01 11:06:10;;;;;;;;;;;;;;;5.77;100.00;100302.33;87386;271;25063;-70
2024/02/01 11:08:15;;;;;;;23.40;15.80;;;;;;;5.81;100.00;100298.02;87248;271;124283;-72
2024/02/01 11:10:16;;;;;;;19.60;17.20;;;;;;;5.80;100.00;100298.17;87328;274;24033;-72
2024/02/01 11:12:24;;;;;;;22.70;16.00;;;;;;;5.80;100.00;100293.41;87193;274;136732;-70
2024/02/01 11:14:28;;;;;;;24.70;18.50;;;;;;;5.81;100.00;100291.64;87432;270;25245;-71
2024/02/01 11:16:48;;;;;;;22.70;19.10;;;;;;;5.78;100.00;100289.15;87224;273;138265;-72
2024/02/01 11:18:54;;;;;;;21.20;18.00;;;;;;;5.72;100.00;100288.19;87219;273;23998;-70
2024/02/01 11:21:02;;;;;;;24.70;18.90;;;;;;;5.68;100.00;100277.69;87181;271;136203;-70
2024/02/01 11:23:08;;;;;;;25.30;19.60;;;;;;;5.63;100.00;100279.03;86269;271;1233955;-69
2024/02/01 11:25:10;;;;;;;;;;;;;;;5.63;100.00;100270.93;86945;271;136325;-72
2024/02/01 11:27:15;;;;;;;26.40;19.50;;;;;;;5.61;100.00;100264.09;87253;274;22571;-71
2024/02/01 11:29:21;;;;;;;24.60;18.90;;;;;;;5.63;100.00;100260.85;87362;263;137603;-68
2024/02/01 11:31:25;;;;;;;26.30;17.00;;;;;;;5.73;100.00;100254.67;87208;271;22653;-69
2024/02/01 11:33:43;;;;;;;23.10;18.00;;;;;;;5.78;100.00;100247.95;87087;271;136900;-70
2024/02/01 11:35:45;;;;;;;25.00;17.40;;;;;;;5.76;100.00;100245.13;87375;279;23738;-71
2024/02/01 11:37:54;;;;;;;21.20;17.40;;;;;;;5.72;100.00;100240.23;87196;263;137874;-68
2024/02/01 11:39:56;;;;;;;22.70;19.00;;;;;;;5.71;100.00;100237.73;87152;278;23889;-70
2024/02/01 11:41:58;;;;;;;25.00;18.50;;;;;;;5.70;100.00;100231.28;87193;271;136125;-68
2024/02/01 11:44:04;;;;;;;22.90;18.00;;;;;;;5.73;100.00;100222.73;87119;279;25259;-69
2024/02/01 11:46:06;;;;;;;23.40;17.90;;;;;;;5.75;100.00;100224.57;87214;266;25047;-74
2024/02/01 11:48:15;;;;;;;26.40;18.90;;;;;;;5.77;100.00;100221.08;87102;274;137365;-68
2024/02/01 11:50:17;;;;;;;25.60;16.40;;;;;;;5.76;100.00;100216.73;87325;271;22581;-75
2024/02/01 11:52:43;;;;;;;25.30;17.50;;;;;;;5.82;100.00;100212.89;87328;271;138717;-69
2024/02/01 11:54:51;;;;;;;21.50;16.80;;;;;;;5.94;100.00;100206.61;87400;268;25279;-71
2024/02/01 11:56:55;;;;;;;22.30;15.30;;;;;;;5.97;100.00;100203.27;87239;271;137138;-67
2024/02/01 11:58:58;;;;;;;25.90;16.90;;;;;;;5.98;100.00;100201.20;87219;279;25096;-71
2024/02/01 12:01:01;;;;;;;19.10;15.10;;;;;;;5.99;100.00;100199.58;87153;272;136468;-71
2024/02/01 12:03:13;;;;;;;19.50;14.80;;;;;;;6.00;100.00;100195.58;87278;270;25217;-71